createdAt,value
2019-05-10T00:03:46.752Z,2.62
2019-05-10T00:08:08.216Z,2.17
2019-05-10T00:12:13.314Z,3.58
2019-05-10T00:16:17.051Z,2.92
2019-05-10T00:20:20.541Z,2.17
2019-05-10T00:24:24.221Z,1.80
2019-05-10T00:28:27.678Z,6.70
2019-05-10T00:32:31.129Z,3.93
2019-05-10T00:36:34.843Z,2.37
2019-05-10T00:40:39.330Z,7.40
2019-05-10T00:44:42.839Z,4.87
2019-05-10T00:48:46.361Z,2.40
2019-05-10T00:52:49.810Z,2.55
2019-05-10T00:56:53.530Z,2.35
2019-05-10T01:00:56.986Z,2.22
2019-05-10T01:05:00.430Z,5.20
2019-05-10T01:09:06.106Z,2.70
2019-05-10T01:13:09.615Z,5.25
2019-05-10T01:17:13.083Z,2.92
2019-05-10T01:21:16.541Z,3.27
2019-05-10T01:25:34.087Z,3.35
2019-05-10T01:29:25.443Z,2.60
2019-05-10T01:33:28.929Z,2.00
2019-05-10T01:37:32.374Z,3.05
2019-05-10T01:41:35.829Z,2.40
2019-05-10T01:45:39.531Z,3.73
2019-05-10T01:49:43.032Z,3.65
2019-05-10T01:53:46.486Z,3.17
2019-05-10T01:57:50.210Z,3.40
2019-05-10T02:01:53.739Z,4.30
2019-05-10T02:05:57.438Z,3.75
2019-05-10T02:10:00.908Z,3.95
2019-05-10T02:14:04.706Z,4.03
2019-05-10T02:18:08.168Z,5.35
2019-05-10T02:22:11.870Z,4.12
2019-05-10T02:26:15.567Z,4.30
2019-05-10T02:30:19.599Z,4.05
2019-05-10T02:34:23.292Z,5.47
2019-05-10T02:38:26.742Z,3.47
2019-05-10T02:42:30.216Z,5.33
2019-05-10T02:46:33.989Z,9.28
2019-05-10T02:50:37.752Z,5.87
2019-05-10T02:54:41.270Z,5.30
2019-05-10T02:58:45.562Z,4.78
2019-05-10T03:02:49.629Z,5.30
2019-05-10T03:07:04.357Z,5.17
2019-05-10T03:11:10.446Z,7.90
2019-05-10T03:15:14.270Z,7.70
2019-05-10T03:19:19.559Z,6.95
2019-05-10T03:23:23.309Z,7.83
2019-05-10T03:27:27.085Z,9.33
2019-05-10T03:31:30.548Z,12.63
2019-05-10T03:35:34.067Z,8.78
2019-05-10T03:39:37.521Z,7.58
2019-05-10T03:43:41.221Z,8.38
2019-05-10T03:47:44.673Z,8.00
2019-05-10T03:51:48.202Z,11.40
2019-05-10T03:55:51.735Z,11.93
2019-05-10T03:59:55.557Z,12.17
2019-05-10T04:03:59.035Z,11.50
2019-05-10T04:08:02.821Z,15.00
2019-05-10T04:12:06.512Z,11.85
2019-05-10T04:16:09.963Z,16.30
2019-05-10T04:20:13.805Z,15.88
2019-05-10T04:24:17.507Z,15.58
2019-05-10T04:28:20.949Z,16.83
2019-05-10T04:32:24.663Z,23.05
2019-05-10T04:36:28.360Z,22.73
2019-05-10T04:40:32.066Z,20.45
2019-05-10T04:44:35.515Z,23.30
2019-05-10T04:48:38.995Z,25.00
2019-05-10T04:52:42.484Z,22.37
2019-05-10T04:56:46.203Z,22.82
2019-05-10T05:00:49.670Z,24.18
2019-05-10T05:04:53.145Z,23.83
2019-05-10T05:08:56.598Z,26.70
2019-05-10T05:13:00.290Z,26.27
2019-05-10T05:17:03.996Z,27.48
2019-05-10T05:21:07.772Z,29.27
2019-05-10T05:25:11.372Z,29.00
2019-05-10T05:29:14.830Z,25.45
2019-05-10T05:33:18.522Z,26.25
2019-05-10T05:37:22.052Z,31.27
2019-05-10T05:41:25.823Z,30.70
2019-05-10T05:45:33.995Z,34.73
2019-05-10T05:49:34.714Z,33.33
2019-05-10T05:53:42.432Z,38.20
2019-05-10T05:57:43.329Z,41.53
2019-05-10T06:01:46.781Z,46.20
2019-05-10T06:05:50.238Z,39.10
2019-05-10T06:09:53.714Z,49.83
2019-05-10T06:13:57.167Z,46.55
2019-05-10T06:18:03.630Z,49.63
2019-05-10T06:22:06.969Z,54.35
2019-05-10T06:26:21.052Z,58.08
2019-05-10T06:34:19.878Z,56.90
2019-05-10T06:38:23.330Z,54.03
2019-05-10T06:42:28.810Z,56.98
2019-05-10T06:46:32.213Z,56.90
2019-05-10T06:50:35.671Z,55.48
2019-05-10T06:54:39.391Z,63.52
2019-05-10T06:58:43.127Z,66.65
2019-05-10T07:02:46.584Z,67.20
2019-05-10T07:06:50.055Z,66.25
2019-05-10T07:10:53.852Z,62.73
2019-05-10T07:14:57.801Z,71.97
2019-05-10T07:19:05.319Z,78.17
2019-05-10T07:23:08.815Z,67.50
2019-05-10T07:27:12.404Z,65.53
2019-05-10T07:31:15.857Z,69.03
2019-05-10T07:35:19.415Z,57.08
2019-05-10T07:39:22.850Z,64.85
2019-05-10T07:43:28.868Z,62.08
2019-05-10T07:47:34.293Z,54.93
2019-05-10T07:51:38.023Z,50.33
2019-05-10T07:55:41.597Z,51.50
2019-05-10T07:59:50.877Z,49.27
2019-05-10T08:07:55.245Z,38.70
2019-05-10T08:12:03.222Z,42.65
2019-05-10T08:16:05.537Z,41.17
2019-05-10T08:20:20.365Z,41.85
2019-05-10T08:24:16.768Z,44.08
2019-05-10T08:28:22.772Z,39.70
2019-05-10T08:32:29.913Z,39.80
2019-05-10T08:36:32.172Z,40.80
2019-05-10T08:40:38.134Z,42.63
2019-05-10T08:44:43.307Z,34.37
2019-05-10T08:48:51.368Z,36.67
2019-05-10T08:52:56.738Z,29.48
2019-05-10T08:57:01.377Z,31.30
2019-05-10T09:01:16.654Z,23.55
2019-05-10T09:05:12.247Z,19.95
2019-05-10T09:09:14.666Z,21.13
2019-05-10T09:13:18.714Z,28.83
2019-05-10T09:17:27.020Z,21.42
2019-05-10T09:21:27.578Z,19.32
2019-05-10T09:25:33.650Z,23.18
2019-05-10T09:29:37.482Z,16.27
2019-05-10T09:33:49.179Z,16.62
2019-05-10T09:37:47.727Z,23.63
2019-05-10T09:41:52.804Z,18.87
2019-05-10T09:45:56.762Z,15.97
2019-05-10T09:50:02.258Z,17.63
2019-05-10T09:54:07.701Z,14.23
2019-05-10T09:58:10.586Z,18.10
2019-05-10T10:02:18.895Z,16.63
2019-05-10T10:06:22.011Z,19.12
2019-05-10T10:10:31.685Z,16.37
2019-05-10T10:14:37.777Z,18.13
2019-05-10T10:18:37.095Z,20.23
2019-05-10T10:22:43.454Z,24.23
2019-05-10T10:26:48.202Z,20.17
2019-05-10T10:30:58.901Z,17.07
2019-05-10T10:34:57.802Z,20.33
2019-05-10T10:39:01.394Z,16.65
2019-05-10T10:43:07.266Z,15.75
2019-05-10T10:47:10.340Z,13.07
2019-05-10T10:51:13.993Z,13.98
2019-05-10T10:55:18.728Z,13.75
2019-05-10T10:59:22.326Z,10.08
2019-05-10T11:03:30.503Z,6.28
2019-05-10T11:07:35.296Z,3.17
2019-05-10T11:11:44.364Z,3.57
2019-05-10T11:15:42.158Z,4.67
2019-05-10T11:19:45.682Z,7.20
2019-05-10T11:23:49.459Z,7.08
2019-05-10T11:27:58.379Z,2.22
2019-05-10T11:32:12.077Z,1.63
2019-05-10T11:36:08.424Z,3.67
2019-05-10T11:40:11.323Z,6.57
2019-05-10T11:44:14.458Z,2.52
2019-05-10T11:48:17.907Z,5.97
2019-05-10T11:52:21.805Z,3.50
2019-05-10T11:56:27.751Z,3.15
2019-05-10T12:00:34.073Z,2.17
2019-05-10T12:08:42.001Z,1.70
2019-05-10T12:13:01.721Z,2.40
2019-05-10T12:16:54.495Z,4.20
2019-05-10T12:25:27.435Z,0.80
2019-05-10T12:26:20.249Z,2.13
2019-05-10T12:26:31.417Z,0.87
2019-05-10T12:29:11.839Z,0.60
2019-05-10T12:33:24.085Z,3.02
2019-05-10T12:37:17.481Z,2.47
2019-05-10T12:41:23.220Z,2.77
2019-05-10T12:45:26.102Z,5.62
2019-05-10T12:49:31.508Z,3.25
2019-05-10T12:53:36.791Z,1.50
2019-05-10T12:57:43.047Z,2.87
2019-05-10T13:01:45.662Z,1.93
2019-05-10T13:05:53.296Z,1.90
2019-05-10T13:10:02.110Z,1.57
2019-05-10T13:14:01.031Z,2.67
2019-05-10T13:18:05.210Z,5.45
2019-05-10T13:22:08.655Z,5.97
2019-05-10T13:26:12.423Z,2.62
2019-05-10T13:30:17.115Z,3.77
2019-05-10T13:34:23.946Z,4.15
2019-05-10T13:38:25.710Z,1.53
2019-05-10T13:42:29.425Z,3.95
2019-05-10T13:46:32.885Z,1.70
2019-05-10T13:50:36.588Z,3.65
2019-05-10T13:54:40.022Z,3.40
2019-05-10T13:58:43.475Z,1.33
2019-05-10T14:02:46.922Z,5.95
2019-05-10T14:06:50.382Z,4.87
2019-05-10T14:10:56.019Z,2.85
2019-05-10T14:15:02.544Z,1.30
2019-05-10T14:19:04.546Z,1.40
2019-05-10T14:23:08.067Z,4.43
2019-05-10T14:27:11.514Z,0.68
2019-05-10T14:31:15.224Z,2.75
2019-05-10T14:35:22.610Z,3.65
2019-05-10T14:39:24.105Z,1.20
2019-05-10T14:43:27.546Z,2.62
2019-05-10T14:47:31.008Z,1.98
2019-05-10T14:51:49.521Z,3.00
2019-05-10T14:55:39.744Z,5.50
2019-05-10T15:03:54.189Z,3.98
2019-05-10T15:07:57.663Z,2.20
2019-05-10T15:12:01.651Z,2.12
2019-05-10T15:16:09.624Z,6.03
2019-05-10T15:20:10.787Z,5.37
2019-05-10T15:24:14.541Z,4.65
2019-05-10T15:28:18.269Z,5.37
2019-05-10T15:32:22.098Z,4.55
2019-05-10T15:36:29.631Z,3.85
2019-05-10T15:40:31.281Z,2.30
2019-05-10T15:48:58.681Z,1.80
2019-05-10T15:53:02.135Z,3.02
2019-05-10T15:57:05.614Z,5.80
2019-05-10T16:01:09.204Z,2.80
2019-05-10T16:05:24.049Z,3.27
2019-05-10T16:09:19.229Z,4.87
2019-05-10T16:13:25.086Z,5.67
2019-05-10T16:17:28.469Z,2.60
2019-05-10T16:21:31.960Z,6.60
2019-05-10T16:25:41.131Z,6.20
2019-05-10T16:29:42.412Z,5.70
2019-05-10T16:33:48.251Z,4.67
2019-05-10T16:37:51.303Z,2.30
2019-05-10T16:41:54.773Z,6.40
2019-05-10T16:45:58.290Z,2.45
2019-05-10T16:50:01.785Z,6.45
2019-05-10T16:54:05.307Z,2.70
2019-05-10T16:58:09.427Z,6.12
2019-05-10T17:02:14.174Z,5.20
2019-05-10T17:06:17.635Z,3.90
2019-05-10T17:10:21.082Z,5.40
2019-05-10T17:14:24.536Z,3.58
2019-05-10T17:18:27.988Z,3.12
2019-05-10T17:22:31.433Z,2.83
2019-05-10T17:26:34.895Z,3.85
2019-05-10T17:30:38.384Z,2.95
2019-05-10T17:34:41.839Z,1.72
2019-05-10T17:38:47.472Z,5.85
2019-05-10T17:42:52.093Z,4.13
2019-05-10T17:46:57.403Z,2.13
2019-05-10T17:51:00.765Z,8.73
2019-05-10T17:55:11.018Z,2.35
2019-05-10T17:59:13.928Z,1.52
2019-05-10T18:03:17.585Z,2.00
2019-05-10T18:07:21.076Z,2.67
2019-05-10T18:11:24.522Z,3.47
2019-05-10T18:15:32.749Z,3.52
2019-05-10T18:19:33.147Z,2.17
2019-05-10T18:23:36.629Z,2.40
2019-05-10T18:27:40.145Z,3.12
2019-05-10T18:31:54.732Z,3.60
2019-05-10T18:35:53.042Z,5.87
2019-05-10T18:39:54.722Z,3.90
2019-05-10T18:43:58.591Z,3.25
2019-05-10T18:48:02.115Z,5.35
2019-05-10T18:52:06.639Z,2.67
2019-05-10T18:56:12.310Z,2.72
2019-05-10T19:04:22.195Z,2.60
2019-05-10T19:08:25.694Z,2.47
2019-05-10T19:12:29.688Z,2.33
2019-05-10T19:16:34.425Z,4.70
2019-05-10T19:20:38.516Z,4.35
2019-05-10T19:24:42.023Z,2.02
2019-05-10T19:28:45.549Z,1.85
2019-05-10T19:32:50.960Z,3.80
2019-05-10T19:36:55.158Z,0.87
2019-05-10T19:40:58.733Z,1.43
2019-05-10T19:45:02.285Z,2.60
2019-05-10T19:49:07.403Z,0.72
2019-05-10T19:53:10.931Z,3.57
2019-05-10T19:57:16.370Z,2.35
2019-05-10T20:01:19.748Z,2.10
2019-05-10T20:05:23.425Z,3.08
2019-05-10T20:09:27.184Z,1.17
2019-05-10T20:13:31.336Z,4.85
2019-05-10T20:17:35.857Z,2.83
2019-05-10T20:21:39.433Z,1.60
2019-05-10T20:25:42.892Z,1.75
2019-05-10T20:29:46.579Z,6.12
2019-05-10T20:33:50.272Z,3.17
2019-05-10T20:38:02.223Z,3.52
2019-05-10T20:41:58.892Z,3.33
2019-05-10T20:51:05.258Z,1.72
2019-05-10T20:55:09.235Z,1.72
2019-05-10T20:59:12.676Z,4.97
2019-05-10T21:03:16.136Z,3.30
2019-05-10T21:07:21.126Z,1.70
2019-05-10T21:11:25.602Z,2.27
2019-05-10T21:15:29.037Z,1.50
2019-05-10T21:19:32.475Z,4.65
2019-05-10T21:23:36.199Z,2.92
2019-05-10T21:27:42.642Z,4.78
2019-05-10T21:31:46.185Z,1.80
2019-05-10T21:35:51.414Z,1.42
2019-05-10T21:39:57.622Z,4.50
2019-05-10T21:44:01.121Z,2.40
2019-05-10T21:48:04.585Z,1.65
2019-05-10T21:52:08.164Z,1.87
2019-05-10T21:56:11.926Z,2.45
2019-05-10T22:00:17.177Z,4.58
2019-05-10T22:04:20.631Z,3.02
2019-05-10T22:08:24.073Z,2.72
2019-05-10T22:12:27.774Z,1.98
2019-05-10T22:16:31.209Z,2.90
2019-05-10T22:20:34.645Z,3.83
2019-05-10T22:24:38.370Z,2.70
2019-05-10T22:28:41.826Z,2.25
2019-05-10T22:32:45.336Z,5.53
2019-05-10T22:36:48.781Z,3.12
2019-05-10T22:40:52.215Z,4.72
2019-05-10T22:44:55.666Z,5.80
2019-05-10T22:48:59.109Z,1.87
2019-05-10T22:53:02.553Z,2.35
2019-05-10T22:57:05.989Z,2.52
2019-05-10T23:01:09.669Z,1.75
2019-05-10T23:05:13.466Z,1.32
2019-05-10T23:09:24.732Z,2.33
2019-05-10T23:13:22.098Z,5.03
2019-05-10T23:17:25.538Z,2.52
2019-05-10T23:21:28.986Z,2.72
2019-05-10T23:25:32.985Z,1.47
2019-05-10T23:29:36.704Z,5.58
2019-05-10T23:33:40.150Z,1.22
2019-05-10T23:37:43.603Z,2.60
2019-05-10T23:41:47.294Z,2.83
2019-05-10T23:45:50.733Z,2.05
2019-05-10T23:49:54.181Z,2.77
2019-05-10T23:53:57.631Z,3.98
2019-05-10T23:58:01.074Z,4.75
